createdAt,value
2022-12-25T00:01:41.577Z,2.53
2022-12-25T00:04:14.430Z,3.55
2022-12-25T00:06:47.259Z,3.03
2022-12-25T00:09:20.047Z,2.95
2022-12-25T00:11:52.725Z,3.97
2022-12-25T00:14:25.474Z,2.58
2022-12-25T00:16:58.341Z,2.83
2022-12-25T00:19:31.089Z,3.13
2022-12-25T00:22:03.702Z,2.70
2022-12-25T00:24:36.472Z,2.67
2022-12-25T00:27:09.315Z,2.90
2022-12-25T00:29:42.422Z,3.20
2022-12-25T00:32:15.232Z,2.83
2022-12-25T00:34:48.161Z,3.35
2022-12-25T00:37:21.029Z,2.70
2022-12-25T00:39:53.772Z,3.00
2022-12-25T00:42:28.464Z,3.10
2022-12-25T00:45:01.633Z,2.92
2022-12-25T00:47:34.566Z,3.45
2022-12-25T00:50:08.226Z,3.20
2022-12-25T00:52:40.925Z,3.75
2022-12-25T00:55:13.755Z,2.78
2022-12-25T00:57:46.428Z,4.05
2022-12-25T01:00:19.422Z,3.35
2022-12-25T01:02:52.295Z,3.47
2022-12-25T01:05:24.987Z,3.20
2022-12-25T01:07:57.639Z,3.63
2022-12-25T01:10:30.370Z,3.42
2022-12-25T01:13:03.079Z,2.85
2022-12-25T01:15:37.216Z,3.03
2022-12-25T01:18:12.892Z,2.75
2022-12-25T01:20:45.951Z,2.90
2022-12-25T01:23:18.786Z,3.38
2022-12-25T01:25:51.399Z,2.55
2022-12-25T01:28:24.095Z,3.55
2022-12-25T01:30:56.981Z,3.50
2022-12-25T01:33:29.940Z,3.10
2022-12-25T01:36:02.713Z,2.97
2022-12-25T01:38:35.391Z,2.97
2022-12-25T01:41:08.120Z,2.90
2022-12-25T01:44:18.092Z,3.55
2022-12-25T01:46:50.647Z,2.63
2022-12-25T01:49:26.111Z,2.80
2022-12-25T01:52:20.294Z,3.00
2022-12-25T01:55:04.084Z,2.97
2022-12-25T01:57:39.567Z,2.90
2022-12-25T02:00:13.457Z,3.65
2022-12-25T02:02:46.873Z,2.65
2022-12-25T02:05:24.894Z,2.58
2022-12-25T02:08:06.266Z,3.17
2022-12-25T02:10:39.247Z,2.65
2022-12-25T02:13:16.508Z,2.78
2022-12-25T02:16:15.876Z,2.47
2022-12-25T02:18:58.501Z,2.47
2022-12-25T02:24:46.563Z,2.78
2022-12-25T02:27:55.046Z,2.70
2022-12-25T02:33:39.595Z,2.55
2022-12-25T02:36:22.144Z,2.33
2022-12-25T02:39:20.958Z,2.42
2022-12-25T02:41:58.154Z,2.65
2022-12-25T02:44:52.429Z,2.63
2022-12-25T02:47:55.273Z,2.47
2022-12-25T02:50:47.366Z,3.00
2022-12-25T02:53:38.669Z,2.92
2022-12-25T02:56:30.981Z,3.15
2022-12-25T02:59:25.284Z,2.95
2022-12-25T03:02:17.514Z,2.55
2022-12-25T03:05:14.425Z,2.88
2022-12-25T03:07:47.646Z,2.30
2022-12-25T03:10:41.395Z,3.40
2022-12-25T03:13:21.888Z,2.75
2022-12-25T03:16:14.421Z,2.88
2022-12-25T03:18:47.400Z,2.50
2022-12-25T03:21:38.522Z,2.88
2022-12-25T03:24:29.807Z,2.58
2022-12-25T03:27:02.450Z,2.63
2022-12-25T03:29:53.715Z,2.70
2022-12-25T03:32:47.604Z,2.80
2022-12-25T03:35:47.178Z,2.47
2022-12-25T03:38:49.743Z,3.20
2022-12-25T03:42:05.964Z,3.08
2022-12-25T03:45:40.412Z,2.53
2022-12-25T03:48:35.345Z,2.25
2022-12-25T03:51:33.017Z,2.28
2022-12-25T03:54:29.482Z,2.13
2022-12-25T03:57:20.817Z,2.80
2022-12-25T04:00:11.983Z,2.50
2022-12-25T04:03:03.138Z,2.40
2022-12-25T04:05:54.343Z,1.75
2022-12-25T04:08:45.394Z,2.80
2022-12-25T04:11:36.961Z,2.20
2022-12-25T04:14:28.185Z,2.63
2022-12-25T04:17:19.344Z,2.15
2022-12-25T04:20:10.985Z,2.30
2022-12-25T04:23:02.167Z,1.88
2022-12-25T04:25:53.487Z,2.05
2022-12-25T04:28:44.732Z,1.83
2022-12-25T04:31:35.951Z,2.58
2022-12-25T04:34:27.202Z,2.70
2022-12-25T04:36:59.954Z,2.45
2022-12-25T04:39:32.551Z,1.70
2022-12-25T04:42:05.201Z,1.75
2022-12-25T04:44:37.830Z,2.08
2022-12-25T04:47:11.648Z,2.30
2022-12-25T04:49:44.472Z,1.92
2022-12-25T04:52:17.337Z,2.08
2022-12-25T04:54:50.056Z,1.83
2022-12-25T04:57:23.003Z,1.73
2022-12-25T04:59:55.726Z,1.73
2022-12-25T05:02:28.641Z,1.50
2022-12-25T05:05:01.606Z,1.80
2022-12-25T05:07:34.323Z,1.50
2022-12-25T05:10:08.172Z,1.58
2022-12-25T05:12:40.839Z,1.67
2022-12-25T05:15:13.663Z,1.35
2022-12-25T05:17:46.358Z,1.65
2022-12-25T05:20:19.030Z,1.42
2022-12-25T05:22:51.633Z,1.65
2022-12-25T05:25:24.237Z,1.48
2022-12-25T05:27:56.886Z,1.33
2022-12-25T05:30:29.546Z,1.50
2022-12-25T05:33:03.620Z,1.30
2022-12-25T05:35:38.142Z,1.40
2022-12-25T05:38:10.886Z,1.70
2022-12-25T05:40:43.635Z,1.70
2022-12-25T05:43:16.392Z,1.65
2022-12-25T05:45:49.141Z,1.73
2022-12-25T05:48:21.932Z,1.33
2022-12-25T05:50:54.657Z,1.20
2022-12-25T05:53:27.303Z,1.30
2022-12-25T05:56:06.733Z,1.25
2022-12-25T05:58:41.148Z,1.17
2022-12-25T06:01:18.292Z,1.55
2022-12-25T06:03:51.319Z,1.38
2022-12-25T06:06:24.259Z,1.40
2022-12-25T06:08:57.015Z,1.20
2022-12-25T06:11:29.624Z,1.45
2022-12-25T06:14:02.278Z,1.17
2022-12-25T06:16:38.120Z,1.27
2022-12-25T06:19:11.324Z,0.80
2022-12-25T06:21:44.009Z,1.40
2022-12-25T06:24:21.199Z,1.20
2022-12-25T06:26:54.406Z,1.20
2022-12-25T06:29:27.257Z,1.10
2022-12-25T06:32:00.057Z,1.60
2022-12-25T06:34:33.004Z,1.35
2022-12-25T06:37:06.240Z,1.40
2022-12-25T06:39:38.890Z,1.30
2022-12-25T06:42:11.474Z,1.23
2022-12-25T06:44:44.762Z,1.30
2022-12-25T06:47:17.981Z,0.85
2022-12-25T06:49:50.653Z,1.30
2022-12-25T06:52:23.392Z,1.45
2022-12-25T06:54:56.144Z,1.70
2022-12-25T06:57:28.906Z,1.50
2022-12-25T07:00:01.765Z,1.48
2022-12-25T07:02:35.808Z,1.33
2022-12-25T07:05:08.753Z,1.65
2022-12-25T07:07:41.539Z,1.48
2022-12-25T07:10:14.345Z,1.48
2022-12-25T07:12:46.952Z,1.40
2022-12-25T07:15:19.847Z,1.60
2022-12-25T07:17:52.462Z,1.27
2022-12-25T07:20:25.279Z,1.25
2022-12-25T07:22:57.971Z,1.33
2022-12-25T07:25:36.892Z,1.20
2022-12-25T07:28:09.944Z,1.73
2022-12-25T07:30:42.680Z,1.65
2022-12-25T07:33:16.770Z,1.60
2022-12-25T07:35:49.446Z,1.27
2022-12-25T07:38:22.182Z,1.50
2022-12-25T07:40:55.067Z,1.48
2022-12-25T07:43:28.196Z,1.30
2022-12-25T07:46:01.784Z,1.30
2022-12-25T07:48:36.098Z,1.48
2022-12-25T07:51:13.822Z,1.58
2022-12-25T07:53:46.581Z,2.13
2022-12-25T07:56:20.628Z,1.70
2022-12-25T07:58:53.412Z,1.42
2022-12-25T08:01:27.691Z,1.20
2022-12-25T08:04:03.080Z,1.30
2022-12-25T08:06:37.391Z,1.13
2022-12-25T08:09:13.075Z,1.45
2022-12-25T08:11:47.173Z,1.42
2022-12-25T08:14:19.959Z,1.40
2022-12-25T08:16:52.833Z,1.55
2022-12-25T08:19:25.590Z,1.77
2022-12-25T08:21:58.285Z,1.50
2022-12-25T08:24:30.875Z,1.50
2022-12-25T08:27:04.211Z,1.40
2022-12-25T08:29:36.945Z,1.33
2022-12-25T08:32:09.525Z,1.40
2022-12-25T08:34:42.249Z,1.60
2022-12-25T08:37:14.868Z,1.67
2022-12-25T08:39:47.548Z,1.30
2022-12-25T08:42:20.251Z,1.30
2022-12-25T08:44:53.137Z,1.27
2022-12-25T08:47:25.792Z,1.40
2022-12-25T08:49:58.456Z,1.80
2022-12-25T08:52:31.547Z,1.65
2022-12-25T08:55:04.986Z,1.50
2022-12-25T08:57:39.188Z,1.65
2022-12-25T09:00:12.700Z,1.63
2022-12-25T09:02:46.921Z,1.83
2022-12-25T09:05:23.617Z,1.67
2022-12-25T09:07:56.781Z,1.40
2022-12-25T09:10:30.188Z,1.38
2022-12-25T09:13:04.008Z,1.60
2022-12-25T09:15:39.105Z,1.23
2022-12-25T09:18:13.356Z,1.77
2022-12-25T09:21:04.803Z,1.95
2022-12-25T09:23:46.154Z,1.40
2022-12-25T09:26:22.238Z,2.72
2022-12-25T09:31:39.456Z,1.52
2022-12-25T09:34:18.776Z,1.40
2022-12-25T09:36:52.348Z,1.50
2022-12-25T09:39:27.780Z,1.98
2022-12-25T09:42:44.152Z,1.42
2022-12-25T09:45:28.900Z,1.73
2022-12-25T09:48:05.336Z,1.80
2022-12-25T09:50:44.034Z,1.80
2022-12-25T09:53:25.533Z,1.80
2022-12-25T09:56:14.250Z,2.05
2022-12-25T09:58:50.921Z,1.88
2022-12-25T10:02:11.669Z,1.58
2022-12-25T10:05:17.376Z,1.92
2022-12-25T10:08:23.971Z,2.22
2022-12-25T10:11:44.241Z,2.00
2022-12-25T10:14:45.915Z,2.50
2022-12-25T10:21:57.561Z,2.67
2022-12-25T10:24:45.927Z,2.28
2022-12-25T10:27:42.824Z,2.33
2022-12-25T10:30:25.675Z,2.22
2022-12-25T10:32:59.308Z,2.03
2022-12-25T10:35:44.288Z,2.13
2022-12-25T10:38:24.657Z,1.52
2022-12-25T10:41:21.369Z,2.50
2022-12-25T10:43:58.795Z,2.22
2022-12-25T10:46:32.215Z,2.35
2022-12-25T10:49:08.791Z,2.38
2022-12-25T10:51:43.592Z,2.22
2022-12-25T10:54:46.666Z,1.85
2022-12-25T10:57:32.595Z,2.90
2022-12-25T11:00:27.520Z,2.55
2022-12-25T11:03:01.403Z,2.60
2022-12-25T11:05:40.077Z,2.92
2022-12-25T11:08:26.808Z,2.45
2022-12-25T11:11:09.221Z,2.30
2022-12-25T11:13:59.551Z,2.50
2022-12-25T11:16:41.092Z,2.00
2022-12-25T11:20:03.678Z,2.25
2022-12-25T11:23:03.588Z,2.70
2022-12-25T11:25:48.537Z,2.50
2022-12-25T11:31:45.499Z,2.45
2022-12-25T11:34:33.795Z,1.85
2022-12-25T11:37:30.436Z,2.72
2022-12-25T11:40:14.499Z,2.80
2022-12-25T11:43:23.593Z,2.83
2022-12-25T11:46:27.568Z,3.05
2022-12-25T11:49:18.468Z,2.85
2022-12-25T11:51:57.900Z,2.55
2022-12-25T11:55:05.372Z,3.10
2022-12-25T11:57:40.495Z,3.08
2022-12-25T12:00:16.547Z,2.97
2022-12-25T12:05:53.305Z,2.67
2022-12-25T12:08:27.293Z,3.00
2022-12-25T12:11:24.035Z,2.42
2022-12-25T12:14:15.314Z,3.47
2022-12-25T12:16:48.160Z,2.70
2022-12-25T12:19:31.142Z,2.95
2022-12-25T12:22:05.140Z,2.60
2022-12-25T12:24:44.447Z,3.03
2022-12-25T12:27:27.809Z,3.17
2022-12-25T12:30:01.096Z,3.45
2022-12-25T12:32:43.246Z,3.90
2022-12-25T12:35:26.571Z,3.60
2022-12-25T12:38:09.659Z,3.58
2022-12-25T12:40:52.127Z,4.40
2022-12-25T12:46:31.408Z,3.90
2022-12-25T12:49:16.559Z,4.30
2022-12-25T12:51:51.081Z,3.95
2022-12-25T12:54:27.902Z,4.40
2022-12-25T12:57:04.718Z,4.65
2022-12-25T12:59:44.482Z,4.35
2022-12-25T13:02:41.949Z,4.10
2022-12-25T13:06:01.166Z,4.47
2022-12-25T13:09:04.851Z,4.63
2022-12-25T13:11:43.405Z,4.18
2022-12-25T13:14:20.502Z,4.07
2022-12-25T13:16:54.752Z,4.32
2022-12-25T13:19:32.951Z,4.60
2022-12-25T13:22:28.328Z,4.53
2022-12-25T13:28:32.958Z,3.88
2022-12-25T13:31:27.945Z,4.28
2022-12-25T13:34:37.609Z,4.10
2022-12-25T13:37:18.131Z,4.90
2022-12-25T13:39:58.224Z,4.00
2022-12-25T13:42:37.799Z,4.18
2022-12-25T13:45:21.177Z,4.78
2022-12-25T13:48:12.611Z,4.35
2022-12-25T13:50:58.780Z,4.28
2022-12-25T13:54:02.551Z,4.32
2022-12-25T13:56:36.645Z,4.55
2022-12-25T13:59:19.132Z,5.38
2022-12-25T14:04:45.193Z,4.75
2022-12-25T14:08:30.405Z,4.13
2022-12-25T14:11:13.504Z,3.95
2022-12-25T14:13:51.633Z,4.05
2022-12-25T14:16:56.671Z,4.13
2022-12-25T14:19:50.650Z,4.82
2022-12-25T14:22:48.202Z,4.10
2022-12-25T14:25:55.951Z,3.30
2022-12-25T14:29:18.647Z,3.35
2022-12-25T14:32:05.023Z,3.90
2022-12-25T14:34:58.066Z,4.30
2022-12-25T14:37:47.936Z,4.30
2022-12-25T14:40:39.997Z,4.30
2022-12-25T14:43:31.091Z,4.55
2022-12-25T14:49:35.290Z,4.65
2022-12-25T14:52:39.012Z,3.92
2022-12-25T14:55:25.322Z,12.00
2022-12-25T14:58:09.306Z,8.32
2022-12-25T15:00:42.595Z,5.10
2022-12-25T15:03:42.484Z,5.50
2022-12-25T15:06:27.762Z,5.22
2022-12-25T15:09:22.303Z,5.70
2022-12-25T15:12:07.319Z,6.40
2022-12-25T15:14:46.780Z,5.78
2022-12-25T15:17:38.912Z,4.50
2022-12-25T15:20:18.178Z,4.93
2022-12-25T15:23:18.389Z,5.32
2022-12-25T15:25:51.302Z,6.65
2022-12-25T15:28:27.872Z,6.03
2022-12-25T15:31:18.437Z,5.20
2022-12-25T15:33:53.833Z,5.05
2022-12-25T15:36:41.291Z,4.63
2022-12-25T15:39:31.118Z,4.90
2022-12-25T15:42:48.689Z,5.28
2022-12-25T15:48:35.535Z,9.45
2022-12-25T15:51:08.898Z,7.40
2022-12-25T15:53:41.689Z,7.93
2022-12-25T15:56:15.816Z,7.88
2022-12-25T15:58:51.981Z,8.82
2022-12-25T16:01:25.102Z,7.78
2022-12-25T16:04:02.712Z,7.30
2022-12-25T16:06:36.855Z,7.00
2022-12-25T16:09:25.133Z,7.32
2022-12-25T16:11:57.864Z,9.98
2022-12-25T16:14:33.945Z,13.30
2022-12-25T16:20:09.276Z,10.02
2022-12-25T16:22:53.927Z,8.38
2022-12-25T16:25:26.463Z,8.65
2022-12-25T16:27:59.141Z,7.88
2022-12-25T16:30:31.681Z,9.27
2022-12-25T16:33:04.791Z,9.63
2022-12-25T16:35:37.469Z,7.60
2022-12-25T16:38:10.020Z,7.90
2022-12-25T16:40:44.339Z,6.35
2022-12-25T16:43:23.626Z,6.35
2022-12-25T16:45:57.335Z,6.65
2022-12-25T16:48:29.880Z,6.80
2022-12-25T16:51:15.971Z,7.32
2022-12-25T16:53:48.585Z,6.15
2022-12-25T16:56:25.375Z,5.78
2022-12-25T16:58:59.340Z,4.60
2022-12-25T17:01:32.036Z,4.72
2022-12-25T17:04:05.120Z,4.75
2022-12-25T17:06:38.029Z,5.05
2022-12-25T17:09:10.557Z,4.93
2022-12-25T17:11:43.082Z,6.50
2022-12-25T17:14:15.686Z,6.50
2022-12-25T17:16:48.431Z,5.75
2022-12-25T17:19:23.728Z,5.78
2022-12-25T17:21:56.475Z,5.93
2022-12-25T17:24:29.895Z,6.45
2022-12-25T17:27:02.431Z,6.30
2022-12-25T17:29:43.781Z,44.05
2022-12-25T17:32:16.377Z,11.65
2022-12-25T17:34:48.947Z,6.85
2022-12-25T17:37:22.108Z,6.53
2022-12-25T17:39:54.646Z,5.88
2022-12-25T17:42:27.191Z,5.85
2022-12-25T17:45:03.539Z,6.30
2022-12-25T17:47:36.115Z,6.15
2022-12-25T17:50:08.845Z,6.55
2022-12-25T17:52:41.409Z,9.55
2022-12-25T17:55:13.903Z,9.05
2022-12-25T17:57:46.479Z,7.03
2022-12-25T18:00:19.374Z,7.90
2022-12-25T18:02:52.790Z,7.25
2022-12-25T18:05:25.428Z,6.57
2022-12-25T18:07:58.043Z,7.30
2022-12-25T18:10:36.411Z,7.05
2022-12-25T18:13:11.877Z,6.65
2022-12-25T18:15:44.382Z,6.47
2022-12-25T18:18:16.903Z,7.22
2022-12-25T18:20:49.370Z,8.35
2022-12-25T18:23:22.069Z,8.02
2022-12-25T18:25:54.744Z,7.13
2022-12-25T18:28:27.258Z,7.25
2022-12-25T18:31:00.015Z,7.95
2022-12-25T18:33:32.564Z,7.28
2022-12-25T18:36:05.553Z,7.82
2022-12-25T18:38:38.143Z,7.10
2022-12-25T18:41:11.392Z,7.03
2022-12-25T18:43:52.402Z,7.57
2022-12-25T18:46:28.059Z,7.13
2022-12-25T18:49:00.694Z,6.85
2022-12-25T18:51:37.107Z,6.72
2022-12-25T18:54:09.868Z,8.55
2022-12-25T18:56:42.501Z,7.18
2022-12-25T18:59:15.149Z,7.38
2022-12-25T19:01:47.793Z,7.22
2022-12-25T19:04:20.435Z,8.07
2022-12-25T19:06:52.950Z,7.30
2022-12-25T19:09:25.518Z,6.85
2022-12-25T19:11:58.248Z,6.50
2022-12-25T19:14:30.818Z,6.18
2022-12-25T19:17:20.342Z,6.22
2022-12-25T19:19:52.854Z,5.88
2022-12-25T19:22:25.412Z,6.28
2022-12-25T19:24:57.994Z,6.13
2022-12-25T19:27:30.627Z,6.50
2022-12-25T19:30:03.584Z,6.35
2022-12-25T19:32:36.130Z,7.07
2022-12-25T19:35:08.864Z,7.18
2022-12-25T19:37:41.396Z,6.90
2022-12-25T19:40:13.906Z,8.02
2022-12-25T19:42:46.454Z,7.03
2022-12-25T19:45:19.036Z,7.70
2022-12-25T19:47:51.509Z,8.07
2022-12-25T19:50:30.573Z,6.75
2022-12-25T19:53:03.093Z,7.75
2022-12-25T19:55:35.619Z,7.10
2022-12-25T19:58:08.341Z,7.03
2022-12-25T20:00:41.817Z,7.78
2022-12-25T20:03:14.552Z,6.95
2022-12-25T20:05:47.091Z,7.00
2022-12-25T20:08:19.987Z,7.05
2022-12-25T20:10:52.725Z,7.28
2022-12-25T20:13:25.937Z,7.28
2022-12-25T20:16:01.739Z,6.07
2022-12-25T20:21:14.110Z,6.75
2022-12-25T20:23:51.873Z,6.50
2022-12-25T20:26:29.270Z,6.53
2022-12-25T20:29:03.199Z,5.88
2022-12-25T20:31:36.179Z,6.32
2022-12-25T20:34:11.764Z,5.55
2022-12-25T20:36:45.353Z,6.60
2022-12-25T20:39:17.979Z,6.63
2022-12-25T20:41:50.504Z,5.55
2022-12-25T20:44:23.339Z,6.32
2022-12-25T20:46:59.249Z,5.85
2022-12-25T20:49:32.790Z,6.30
2022-12-25T20:52:05.998Z,6.20
2022-12-25T20:54:38.817Z,5.30
2022-12-25T20:57:11.620Z,6.22
2022-12-25T20:59:44.263Z,7.40
2022-12-25T21:02:35.707Z,6.22
2022-12-25T21:05:12.290Z,7.13
2022-12-25T21:07:44.913Z,5.70
2022-12-25T21:10:17.538Z,6.25
2022-12-25T21:12:55.384Z,7.00
2022-12-25T21:15:28.077Z,5.57
2022-12-25T21:18:02.574Z,6.95
2022-12-25T21:20:35.212Z,6.93
2022-12-25T21:23:07.815Z,6.47
2022-12-25T21:25:40.654Z,6.10
2022-12-25T21:28:13.632Z,5.88
2022-12-25T21:30:46.226Z,5.55
2022-12-25T21:33:37.395Z,5.93
2022-12-25T21:36:11.662Z,6.45
2022-12-25T21:38:45.481Z,6.57
2022-12-25T21:41:18.161Z,5.78
2022-12-25T21:43:51.952Z,6.53
2022-12-25T21:46:26.012Z,5.63
2022-12-25T21:48:59.893Z,6.35
2022-12-25T21:51:52.727Z,6.18
2022-12-25T21:54:25.289Z,6.75
2022-12-25T21:56:57.856Z,6.75
2022-12-25T21:59:30.451Z,6.93
2022-12-25T22:02:11.209Z,7.18
2022-12-25T22:04:44.259Z,6.88
2022-12-25T22:07:19.986Z,6.47
2022-12-25T22:09:52.674Z,6.63
2022-12-25T22:12:43.848Z,7.10
2022-12-25T22:15:16.408Z,7.03
2022-12-25T22:18:07.778Z,6.70
2022-12-25T22:20:40.420Z,6.43
2022-12-25T22:23:14.317Z,7.53
2022-12-25T22:25:46.970Z,7.32
2022-12-25T22:28:19.592Z,7.55
2022-12-25T22:30:52.320Z,8.07
2022-12-25T22:33:27.912Z,7.53
2022-12-25T22:36:09.561Z,7.03
2022-12-25T22:38:43.137Z,6.55
2022-12-25T22:41:15.775Z,8.40
2022-12-25T22:44:16.475Z,8.80
2022-12-25T22:46:40.892Z,7.88
2022-12-25T22:49:15.433Z,7.85
2022-12-25T22:51:50.217Z,8.02
2022-12-25T22:54:24.452Z,8.93
2022-12-25T22:56:59.235Z,9.10
2022-12-25T22:59:33.012Z,7.00
2022-12-25T23:02:05.790Z,8.07
2022-12-25T23:04:38.507Z,7.57
2022-12-25T23:07:14.267Z,7.82
2022-12-25T23:09:46.845Z,8.52
2022-12-25T23:12:38.256Z,8.32
2022-12-25T23:15:11.005Z,8.05
2022-12-25T23:18:02.441Z,8.20
2022-12-25T23:20:55.577Z,8.27
2022-12-25T23:23:47.014Z,8.60
2022-12-25T23:26:21.016Z,8.15
2022-12-25T23:29:12.429Z,7.47
2022-12-25T23:31:45.134Z,7.70
2022-12-25T23:34:17.755Z,7.70
2022-12-25T23:36:50.332Z,8.52
2022-12-25T23:39:22.964Z,8.52
2022-12-25T23:41:56.007Z,8.25
2022-12-25T23:44:29.590Z,8.25
2022-12-25T23:47:03.004Z,8.07
2022-12-25T23:49:35.568Z,7.88
2022-12-25T23:52:12.939Z,7.82
2022-12-25T23:54:45.498Z,8.32
2022-12-25T23:57:18.074Z,8.23
2022-12-25T23:59:50.749Z,8.38
